Time;durP1;ratioP1;P1;durP2;ratioP2;P2;SDS_P1;SDS_P2;PMS_P1;PMS_P2;Temp;Humidity;BMP_temperature;BMP_pressure;BME280_temperature;BME280_humidity;BME280_pressure;Samples;Min_cycle;Max_cycle;Signal;HPM_P1;HPM_P2
2022/09/27 00:01:59;;;;;;;0.00;0.00;;;;;;;13.79;60.23;100201.09;7360320;19;20014;-57
2022/09/27 00:04:25;;;;;;;0.00;0.00;;;;;;;13.77;60.59;100201.19;7360830;19;20006;-59
2022/09/27 00:06:50;;;;;;;0.00;0.00;;;;;;;13.75;59.96;100193.41;7367293;19;20106;-58
2022/09/27 00:09:16;;;;;;;0.00;0.00;;;;;;;13.76;60.56;100208.22;7367434;19;20010;-59
2022/09/27 00:11:42;;;;;;;0.00;0.00;;;;;;;13.79;60.70;100206.34;7366497;19;21049;-59
2022/09/27 00:14:10;;;;;;;0.00;0.00;;;;;;;13.77;60.72;100199.41;7366377;19;20422;-59
2022/09/27 00:16:38;;;;;;;0.00;0.00;;;;;;;13.73;60.51;100192.59;7364582;19;20006;-59
2022/09/27 00:19:06;;;;;;;0.00;0.00;;;;;;;13.75;59.94;100185.53;7366850;19;20067;-58
2022/09/27 00:21:32;;;;;;;0.00;0.00;;;;;;;13.61;60.88;100164.28;7365215;19;20002;-59
2022/09/27 00:23:58;;;;;;;0.00;0.00;;;;;;;13.64;60.46;100161.53;7366260;19;21499;-60
2022/09/27 00:26:24;;;;;;;0.00;0.00;;;;;;;13.71;60.62;100178.69;7366313;19;20354;-59
2022/09/27 00:28:50;;;;;;;0.00;0.00;;;;;;;13.71;60.85;100189.19;7366231;19;20063;-58
2022/09/27 00:31:23;;;;;;;0.00;0.00;;;;;;;13.73;60.75;100197.84;7366487;19;20573;-58
2022/09/27 00:33:51;;;;;;;0.00;0.00;;;;;;;13.70;61.10;100190.13;7364229;19;20377;-57
2022/09/27 00:36:17;;;;;;;;;;;;;;;13.73;59.02;100184.72;7367175;19;20036;-58
2022/09/27 00:38:43;;;;;;;0.00;0.00;;;;;;;13.64;60.69;100172.03;7365719;19;19919;-59
2022/09/27 00:41:21;;;;;;;0.00;0.00;;;;;;;13.74;60.07;100178.56;7366666;19;20002;-59
2022/09/27 00:43:53;;;;;;;0.00;0.00;;;;;;;13.72;60.95;100175.16;7366049;19;20002;-59
2022/09/27 00:46:32;;;;;;;0.00;0.00;;;;;;;13.73;60.34;100166.34;7365628;19;20036;-58
2022/09/27 00:49:24;;;;;;;0.00;0.00;;;;;;;13.73;59.64;100161.09;7366429;19;20764;-58
2022/09/27 00:51:55;;;;;;;0.00;0.00;;;;;;;13.72;60.67;100153.31;7262092;19;2004601;-58
2022/09/27 00:54:23;;;;;;;0.00;0.00;;;;;;;13.69;61.71;100153.47;7365313;19;20025;-57
2022/09/27 00:56:49;;;;;;;0.00;0.00;;;;;;;13.72;61.10;100164.66;7364116;19;20033;-58
2022/09/27 00:59:27;;;;;;;0.00;0.00;;;;;;;13.69;60.73;100162.19;7365138;19;20006;-60
2022/09/27 01:01:53;;;;;;;0.00;0.00;;;;;;;13.60;61.75;100146.84;7365407;19;20623;-58
2022/09/27 01:04:23;;;;;;;0.00;0.00;;;;;;;13.74;62.14;100167.22;7364572;19;20030;-59
2022/09/27 01:06:49;;;;;;;0.00;0.00;;;;;;;13.71;62.32;100160.31;7365060;19;20018;-58
2022/09/27 01:09:15;;;;;;;0.10;0.10;;;;;;;13.70;62.34;100156.00;7365467;19;20058;-59
2022/09/27 01:11:43;;;;;;;0.00;0.00;;;;;;;13.73;62.82;100161.09;7364865;19;20018;-59
2022/09/27 01:14:43;;;;;;;0.00;0.00;;;;;;;13.72;61.91;100154.16;7363299;19;20010;-58
2022/09/27 01:17:38;;;;;;;0.00;0.00;;;;;;;13.74;61.46;100157.59;7262003;19;2004103;-58
2022/09/27 01:20:22;;;;;;;0.00;0.00;;;;;;;13.68;61.75;100152.56;7263389;19;2004594;-59
2022/09/27 01:23:06;;;;;;;0.00;0.00;;;;;;;13.75;61.35;100143.53;7366191;19;20038;-59
2022/09/27 01:26:03;;;;;;;0.00;0.00;;;;;;;13.47;61.70;100087.94;7364578;19;20116;-59
2022/09/27 01:29:01;;;;;;;0.00;0.00;;;;;;;13.75;61.14;100127.78;7260504;19;2004359;-56
2022/09/27 01:31:39;;;;;;;0.00;0.00;;;;;;;13.76;61.83;100119.00;7262872;19;2004276;-58
2022/09/27 01:34:31;;;;;;;0.00;0.00;;;;;;;13.76;61.12;100128.63;7363422;19;20017;-59
2022/09/27 01:37:19;;;;;;;0.10;0.10;;;;;;;13.77;61.35;100119.84;7263306;19;2004426;-59
2022/09/27 01:40:00;;;;;;;0.00;0.00;;;;;;;13.76;61.07;100113.75;7365686;19;20412;-59
2022/09/27 01:42:35;;;;;;;0.00;0.00;;;;;;;13.75;61.91;100101.53;7364156;19;20017;-59
2022/09/27 01:45:06;;;;;;;0.05;0.05;;;;;;;13.75;61.89;100111.19;7364913;19;20011;-58
2022/09/27 01:47:40;;;;;;;0.00;0.00;;;;;;;13.74;62.04;100115.59;7362340;19;20021;-59
2022/09/27 01:50:17;;;;;;;0.00;0.00;;;;;;;13.78;61.70;100111.03;7363837;19;20454;-59
2022/09/27 01:52:49;;;;;;;0.00;0.00;;;;;;;13.75;61.53;100101.53;7362721;19;20018;-58
2022/09/27 01:55:17;;;;;;;0.00;0.00;;;;;;;13.76;62.04;100090.13;7365750;19;19998;-59
2022/09/27 01:57:56;;;;;;;0.00;0.00;;;;;;;13.79;61.83;100090.88;7356504;19;20010;-58
2022/09/27 02:00:22;;;;;;;0.10;0.10;;;;;;;13.76;62.07;100082.25;7365704;19;20002;-59
2022/09/27 02:03:03;;;;;;;0.00;0.00;;;;;;;13.82;62.04;100091.63;7363986;19;20075;-59
2022/09/27 02:05:35;;;;;;;0.10;0.10;;;;;;;13.82;62.22;100083.75;7365741;19;20018;-59
2022/09/27 02:08:09;;;;;;;0.00;0.00;;;;;;;13.84;62.26;100078.41;7364894;19;20010;-59
2022/09/27 02:10:39;;;;;;;0.00;0.00;;;;;;;13.85;61.94;100067.88;7365391;19;20002;-59
2022/09/27 02:13:24;;;;;;;0.00;0.00;;;;;;;13.88;61.41;100077.34;7365859;19;20034;-59
2022/09/27 02:16:14;;;;;;;0.00;0.00;;;;;;;13.89;61.00;100077.31;7364633;19;20011;-58
2022/09/27 02:18:55;;;;;;;0.00;0.00;;;;;;;13.88;61.06;100067.69;7364541;19;21034;-59
2022/09/27 02:21:30;;;;;;;0.00;0.00;;;;;;;13.86;61.43;100071.34;7364957;19;20626;-58
2022/09/27 02:23:59;;;;;;;0.00;0.00;;;;;;;13.90;61.31;100072.91;7365897;19;20006;-59
2022/09/27 02:26:48;;;;;;;0.00;0.00;;;;;;;13.93;61.13;100067.50;7363838;19;20002;-58
2022/09/27 02:29:23;;;;;;;0.00;0.00;;;;;;;13.91;61.43;100049.19;7364248;19;20009;-57
2022/09/27 02:31:49;;;;;;;0.00;0.00;;;;;;;13.80;61.85;100030.47;7363678;19;20005;-57
2022/09/27 02:34:20;;;;;;;0.00;0.00;;;;;;;13.91;61.89;100059.69;7365933;19;20653;-56
2022/09/27 02:36:47;;;;;;;0.00;0.00;;;;;;;13.89;62.02;100066.81;7363704;19;20026;-58
2022/09/27 02:39:13;;;;;;;0.00;0.00;;;;;;;13.89;62.19;100066.81;7366715;19;20030;-58
2022/09/27 02:41:38;;;;;;;0.00;0.00;;;;;;;13.90;61.76;100062.41;7360076;19;20109;-59
2022/09/27 02:44:09;;;;;;;0.00;0.00;;;;;;;13.91;61.57;100054.44;7363528;19;20006;-58
2022/09/27 02:46:55;;;;;;;0.00;0.00;;;;;;;13.91;61.13;100057.06;7365566;19;20024;-59
2022/09/27 02:49:39;;;;;;;0.00;0.00;;;;;;;13.91;61.73;100054.44;7363650;19;20003;-58
2022/09/27 02:52:26;;;;;;;0.00;0.00;;;;;;;13.89;61.82;100048.44;7361599;19;20027;-59
2022/09/27 02:55:20;;;;;;;0.00;0.00;;;;;;;13.90;61.58;100041.41;7365504;19;20343;-59
2022/09/27 02:58:10;;;;;;;0.00;0.00;;;;;;;13.86;60.97;100034.59;7262371;19;2004262;-58
2022/09/27 03:00:58;;;;;;;0.00;0.00;;;;;;;13.87;61.71;100031.03;7262740;19;2005731;-59
2022/09/27 03:03:43;;;;;;;0.00;0.00;;;;;;;13.87;62.21;100039.75;7361855;19;20802;-57
2022/09/27 03:06:15;;;;;;;0.00;0.00;;;;;;;13.87;62.04;100025.78;7355960;19;20002;-59
2022/09/27 03:08:42;;;;;;;0.00;0.00;;;;;;;13.79;62.52;100012.16;7363186;19;20005;-59
2022/09/27 03:11:08;;;;;;;0.00;0.00;;;;;;;13.74;62.70;100000.13;7361326;19;20074;-58
2022/09/27 03:13:37;;;;;;;0.00;0.00;;;;;;;13.84;62.60;100021.56;7360152;19;20077;-58
2022/09/27 03:16:03;;;;;;;0.00;0.00;;;;;;;13.84;62.42;100015.44;7362024;19;20018;-59
2022/09/27 03:18:29;;;;;;;0.00;0.00;;;;;;;13.86;62.48;100013.59;7357099;19;20026;-59
2022/09/27 03:20:54;;;;;;;0.00;0.00;;;;;;;13.87;62.48;100010.03;7361247;19;20010;-58
2022/09/27 03:23:20;;;;;;;0.00;0.00;;;;;;;13.87;62.44;100010.91;7360379;19;20612;-59
2022/09/27 03:25:45;;;;;;;0.00;0.00;;;;;;;13.90;62.39;99988.91;7363496;19;20010;-60
2022/09/27 03:28:11;;;;;;;0.00;0.00;;;;;;;13.89;62.81;99987.19;7364376;19;20002;-59
2022/09/27 03:30:37;;;;;;;0.10;0.10;;;;;;;13.89;62.64;99992.44;7362752;19;20037;-58
2022/09/27 03:33:03;;;;;;;0.00;0.00;;;;;;;13.89;63.32;100005.56;7361924;19;21467;-59
2022/09/27 03:35:28;;;;;;;0.10;0.10;;;;;;;13.89;62.85;100002.94;7362342;19;20018;-58
2022/09/27 03:37:54;;;;;;;0.00;0.00;;;;;;;13.89;63.39;100003.81;7361247;19;20150;-59
2022/09/27 03:40:19;;;;;;;0.05;0.05;;;;;;;13.88;63.28;99996.00;7361380;19;20789;-59
2022/09/27 03:42:44;;;;;;;0.00;0.00;;;;;;;13.88;63.48;100001.25;7359747;19;20010;-59
2022/09/27 03:45:10;;;;;;;0.00;0.00;;;;;;;13.87;63.94;100004.78;7360154;19;20365;-59
2022/09/27 03:47:40;;;;;;;0.00;0.00;;;;;;;13.88;64.04;100003.88;7362183;19;20015;-59
2022/09/27 03:50:07;;;;;;;0.00;0.00;;;;;;;13.83;64.49;99992.72;7360783;19;20030;-58
2022/09/27 03:52:33;;;;;;;0.03;0.03;;;;;;;13.81;65.00;99984.09;7360906;19;20022;-59
2022/09/27 03:54:58;;;;;;;0.10;0.10;;;;;;;13.79;64.67;99996.41;7361340;19;20006;-59
2022/09/27 03:57:24;;;;;;;0.03;0.03;;;;;;;13.78;64.82;99990.31;7357562;19;20010;-58
2022/09/27 03:59:50;;;;;;;0.00;0.00;;;;;;;13.76;65.11;99976.44;7353896;19;20027;-59
2022/09/27 04:02:15;;;;;;;0.00;0.00;;;;;;;13.71;65.62;99976.66;7361705;19;20664;-59
2022/09/27 04:04:41;;;;;;;0.00;0.00;;;;;;;13.71;65.54;99968.78;7359748;19;20040;-58
2022/09/27 04:07:08;;;;;;;0.00;0.00;;;;;;;13.70;65.89;99982.81;7362799;19;20025;-58
2022/09/27 04:09:36;;;;;;;0.00;0.00;;;;;;;13.64;65.70;99972.63;7359888;19;21093;-59
2022/09/27 04:12:02;;;;;;;0.00;0.00;;;;;;;13.67;65.32;99972.47;7360403;19;20082;-59
2022/09/27 04:14:27;;;;;;;0.00;0.00;;;;;;;13.62;65.54;99984.94;7361778;19;20074;-58
2022/09/27 04:16:53;;;;;;;0.00;0.00;;;;;;;13.66;65.97;99986.50;7358312;19;20644;-59
2022/09/27 04:19:18;;;;;;;0.00;0.00;;;;;;;13.66;65.38;99986.50;7362493;19;20014;-59
2022/09/27 04:21:44;;;;;;;0.00;0.00;;;;;;;13.66;66.01;99983.03;7357704;19;20007;-59
2022/09/27 04:24:10;;;;;;;0.03;0.03;;;;;;;13.65;65.29;99979.56;7362105;19;20011;-59
2022/09/27 04:26:37;;;;;;;0.00;0.00;;;;;;;13.66;65.05;99976.03;7359450;19;20038;-58
2022/09/27 04:29:02;;;;;;;0.00;0.00;;;;;;;13.56;65.52;99951.13;7361939;19;20007;-58
2022/09/27 04:31:28;;;;;;;0.00;0.00;;;;;;;13.56;64.97;99951.13;7357681;19;20034;-58
2022/09/27 04:33:54;;;;;;;0.00;0.00;;;;;;;13.65;65.17;99969.06;7362007;19;20083;-58
2022/09/27 04:36:25;;;;;;;0.00;0.00;;;;;;;13.65;64.41;99976.94;7357838;19;20017;-58
2022/09/27 04:38:55;;;;;;;0.00;0.00;;;;;;;13.63;64.70;99955.16;7360528;19;20010;-58
2022/09/27 04:41:22;;;;;;;0.00;0.00;;;;;;;13.63;64.69;99968.28;7357598;19;20010;-59
2022/09/27 04:43:48;;;;;;;0.00;0.00;;;;;;;13.53;64.48;99953.91;7361110;19;20006;-59
2022/09/27 04:46:13;;;;;;;0.00;0.00;;;;;;;13.62;64.54;99974.47;7360299;19;20010;-59
2022/09/27 04:48:40;;;;;;;0.00;0.00;;;;;;;13.64;64.47;99977.03;7361055;19;20027;-59
2022/09/27 04:51:05;;;;;;;0.00;0.00;;;;;;;13.62;64.62;99973.59;7361187;19;20343;-59
2022/09/27 04:53:31;;;;;;;0.00;0.00;;;;;;;13.64;64.41;99972.63;7366382;19;20002;-59
2022/09/27 04:55:57;;;;;;;0.00;0.00;;;;;;;13.60;64.05;99968.44;7367720;19;20009;-58
2022/09/27 04:58:23;;;;;;;0.00;0.00;;;;;;;13.57;64.10;99960.69;7366271;19;20039;-59
2022/09/27 05:00:51;;;;;;;0.00;0.00;;;;;;;13.60;63.98;99964.97;7367429;19;20011;-57
2022/09/27 05:03:18;;;;;;;0.00;0.00;;;;;;;13.64;64.27;99972.63;7367078;19;20823;-59
2022/09/27 05:05:43;;;;;;;0.00;0.00;;;;;;;13.64;64.19;99962.13;7366189;19;20724;-59
2022/09/27 05:08:09;;;;;;;0.00;0.00;;;;;;;13.63;64.17;99970.91;7366742;19;20031;-57
2022/09/27 05:10:35;;;;;;;0.00;0.00;;;;;;;13.62;63.93;99969.22;7365807;19;20007;-59
2022/09/27 05:13:00;;;;;;;0.00;0.00;;;;;;;13.60;64.01;99971.06;7365549;19;20031;-59
2022/09/27 05:15:26;;;;;;;0.00;0.00;;;;;;;13.61;63.79;99978.00;7364775;19;20769;-59
2022/09/27 05:17:52;;;;;;;0.00;0.00;;;;;;;13.62;64.19;99969.22;7366670;19;20018;-58
2022/09/27 05:20:18;;;;;;;0.03;0.03;;;;;;;13.50;63.88;99956.69;7364458;19;20082;-59
2022/09/27 05:22:44;;;;;;;0.00;0.00;;;;;;;13.61;63.94;99970.13;7365640;19;20098;-59
2022/09/27 05:25:09;;;;;;;0.00;0.00;;;;;;;13.61;63.67;99964.03;7367354;19;20073;-59
2022/09/27 05:27:35;;;;;;;0.00;0.00;;;;;;;13.62;63.62;99957.88;7367440;19;19998;-59
2022/09/27 05:30:00;;;;;;;0.00;0.00;;;;;;;13.58;64.07;99957.16;7365379;19;20003;-58
2022/09/27 05:32:27;;;;;;;0.00;0.00;;;;;;;13.59;63.80;99953.63;7365526;19;20364;-58
2022/09/27 05:34:53;;;;;;;0.00;0.00;;;;;;;13.62;63.44;99961.34;7365019;19;20006;-59
2022/09/27 05:37:18;;;;;;;0.00;0.00;;;;;;;13.62;63.14;99953.47;7365809;19;20006;-58
2022/09/27 05:39:44;;;;;;;0.00;0.00;;;;;;;13.60;63.43;99952.69;7365255;19;20014;-59
2022/09/27 05:42:11;;;;;;;0.00;0.00;;;;;;;13.61;63.70;99954.41;7365771;19;20008;-59
2022/09/27 05:44:38;;;;;;;0.00;0.00;;;;;;;13.57;63.65;99944.97;7364496;19;20224;-58
2022/09/27 05:47:04;;;;;;;0.10;0.10;;;;;;;13.60;63.67;99950.09;7364617;19;20021;-59
2022/09/27 05:49:29;;;;;;;0.00;0.00;;;;;;;13.60;63.68;99949.22;7365449;19;20605;-58
2022/09/27 05:51:55;;;;;;;0.00;0.00;;;;;;;13.59;63.39;99953.63;7364775;19;20037;-59
2022/09/27 05:54:20;;;;;;;0.08;0.08;;;;;;;13.59;63.47;99945.75;7364749;19;20018;-59
2022/09/27 05:56:46;;;;;;;0.08;0.08;;;;;;;13.59;63.26;99945.75;7363323;19;20006;-56
2022/09/27 05:59:11;;;;;;;0.00;0.00;;;;;;;13.58;63.31;99946.66;7358843;19;20014;-58
2022/09/27 06:01:36;;;;;;;0.00;0.00;;;;;;;13.58;63.11;99946.66;7364169;19;19994;-58
2022/09/27 06:04:04;;;;;;;0.00;0.00;;;;;;;13.54;63.19;99939.88;7365021;19;20022;-58
2022/09/27 06:06:29;;;;;;;0.00;0.00;;;;;;;13.56;63.05;99939.81;7364922;19;20044;-58
2022/09/27 06:08:55;;;;;;;0.00;0.00;;;;;;;13.53;63.17;99938.16;7367023;19;21480;-59
2022/09/27 06:11:20;;;;;;;0.00;0.00;;;;;;;13.52;63.60;99939.09;7365025;19;20006;-58
2022/09/27 06:13:45;;;;;;;0.00;0.00;;;;;;;13.52;63.17;99933.84;7366628;19;20476;-59
2022/09/27 06:16:11;;;;;;;0.00;0.00;;;;;;;13.49;63.61;99941.88;7365298;19;20014;-58
2022/09/27 06:18:37;;;;;;;0.00;0.00;;;;;;;13.40;63.48;99927.41;7365031;19;20681;-59
2022/09/27 06:21:04;;;;;;;0.00;0.00;;;;;;;13.46;63.45;99936.75;7365634;19;20006;-58
2022/09/27 06:23:33;;;;;;;0.00;0.00;;;;;;;13.45;63.08;99945.56;7363137;19;20022;-59
2022/09/27 06:26:06;;;;;;;0.10;0.10;;;;;;;13.46;63.16;99939.38;7365739;19;20474;-58
2022/09/27 06:28:34;;;;;;;0.00;0.00;;;;;;;13.43;63.30;99947.38;7363272;19;20606;-59
2022/09/27 06:31:00;;;;;;;0.00;0.00;;;;;;;13.30;63.79;99912.16;7366208;19;20017;-58
2022/09/27 06:33:27;;;;;;;0.00;0.00;;;;;;;13.29;63.88;99918.34;7362637;19;20002;-59
2022/09/27 06:35:52;;;;;;;0.00;0.00;;;;;;;13.40;63.59;99937.91;7366067;19;20009;-60
2022/09/27 06:38:20;;;;;;;0.00;0.00;;;;;;;13.31;64.28;99926.97;7364081;19;20006;-59
2022/09/27 06:40:46;;;;;;;0.00;0.00;;;;;;;13.32;63.73;99919.03;7354535;19;20036;-59
2022/09/27 06:43:17;;;;;;;0.00;0.00;;;;;;;13.44;64.06;99933.38;7360954;19;20022;-60
2022/09/27 06:45:42;;;;;;;0.00;0.00;;;;;;;13.41;64.25;99938.75;7362088;19;20014;-59
2022/09/27 06:48:11;;;;;;;0.00;0.00;;;;;;;13.41;64.36;99938.75;7364610;19;22767;-60
2022/09/27 06:50:38;;;;;;;0.00;0.00;;;;;;;13.43;64.38;99942.13;7362240;19;19998;-58
2022/09/27 06:53:05;;;;;;;0.00;0.00;;;;;;;13.45;64.08;99935.06;7361429;19;20049;-59
2022/09/27 06:55:30;;;;;;;0.00;0.00;;;;;;;13.46;64.09;99931.50;7353122;19;20002;-59
2022/09/27 07:00:46;;;;;;;0.00;0.00;;;;;;;13.46;64.36;99931.50;7357069;19;20009;-59
2022/09/27 07:03:13;;;;;;;0.00;0.00;;;;;;;13.47;63.99;99925.34;7356879;19;20010;-58
2022/09/27 07:05:40;;;;;;;0.00;0.00;;;;;;;13.48;64.23;99924.41;7360443;19;20006;-59
2022/09/27 07:08:05;;;;;;;0.00;0.00;;;;;;;13.47;64.02;99922.72;7363400;19;20029;-59
2022/09/27 07:10:34;;;;;;;0.10;0.10;;;;;;;13.49;64.35;99918.25;7362504;19;20089;-59
2022/09/27 07:13:08;;;;;;;0.00;0.00;;;;;;;13.49;63.96;99913.88;7364411;19;20010;-59
2022/09/27 07:15:37;;;;;;;0.03;0.03;;;;;;;13.49;64.44;99919.09;7360805;19;20078;-58
2022/09/27 07:18:05;;;;;;;0.00;0.00;;;;;;;13.51;63.88;99919.03;7363521;19;20012;-59
2022/09/27 07:20:31;;;;;;;0.00;0.00;;;;;;;13.52;63.91;99914.63;7360960;19;20007;-58
2022/09/27 07:22:58;;;;;;;0.10;0.10;;;;;;;13.53;63.94;99911.94;7361129;19;20959;-58
2022/09/27 07:25:24;;;;;;;0.00;0.00;;;;;;;13.54;64.09;99921.53;7360627;19;20030;-58
2022/09/27 07:27:51;;;;;;;0.00;0.00;;;;;;;13.54;64.20;99912.81;7359477;19;20572;-58
2022/09/27 07:30:18;;;;;;;0.00;0.00;;;;;;;13.55;63.76;99923.22;7360471;19;20816;-59
2022/09/27 07:32:43;;;;;;;0.00;0.00;;;;;;;13.48;64.15;99913.91;7364200;19;19998;-59
2022/09/27 07:35:10;;;;;;;0.00;0.00;;;;;;;13.58;64.31;99923.06;7358577;19;20247;-59
2022/09/27 07:37:36;;;;;;;0.00;0.00;;;;;;;13.60;64.01;99923.84;7363390;19;21228;-59
2022/09/27 07:40:06;;;;;;;0.00;0.00;;;;;;;13.58;63.99;99916.97;7362176;19;20022;-59
2022/09/27 07:42:32;;;;;;;0.00;0.00;;;;;;;13.62;64.35;99921.97;7363001;19;20007;-58
2022/09/27 07:44:58;;;;;;;0.00;0.00;;;;;;;13.64;64.02;99920.16;7362308;19;20049;-59
2022/09/27 07:47:25;;;;;;;0.00;0.00;;;;;;;13.67;64.02;99919.16;7361544;19;20670;-59
2022/09/27 07:49:51;;;;;;;0.00;0.00;;;;;;;13.62;63.89;99905.41;7362098;19;20167;-55
2022/09/27 07:52:18;;;;;;;0.00;0.00;;;;;;;13.62;63.99;99901.00;7357986;19;20011;-58
2022/09/27 07:54:44;;;;;;;0.00;0.00;;;;;;;13.74;64.27;99904.81;7359283;19;20010;-59
2022/09/27 07:57:10;;;;;;;0.00;0.00;;;;;;;13.76;63.90;99909.06;7362822;19;20026;-59
2022/09/27 07:59:35;;;;;;;0.00;0.00;;;;;;;13.80;63.75;99908.94;7360489;19;20003;-56
2022/09/27 08:02:01;;;;;;;0.00;0.00;;;;;;;13.82;63.89;99907.91;7359407;19;20043;-59
2022/09/27 08:04:26;;;;;;;0.00;0.00;;;;;;;13.86;64.25;99919.13;7360351;19;20006;-59
2022/09/27 08:06:51;;;;;;;0.00;0.00;;;;;;;13.88;63.80;99912.84;7362484;19;20803;-59
2022/09/27 08:09:17;;;;;;;0.00;0.00;;;;;;;13.89;63.81;99909.31;7360901;19;20022;-59
2022/09/27 08:11:44;;;;;;;0.05;0.05;;;;;;;13.89;64.04;99908.44;7360810;19;20421;-59
2022/09/27 08:14:10;;;;;;;0.10;0.10;;;;;;;13.99;63.72;99914.97;7360347;19;20450;-59
2022/09/27 08:16:35;;;;;;;0.10;0.10;;;;;;;14.00;64.16;99920.16;7358581;19;20018;-60
2022/09/27 08:19:01;;;;;;;0.00;0.00;;;;;;;14.05;63.92;99912.03;7359132;19;20003;-60
2022/09/27 08:21:26;;;;;;;0.00;0.00;;;;;;;14.07;63.75;99911.97;7362595;19;20406;-56
2022/09/27 08:23:52;;;;;;;0.10;0.10;;;;;;;14.12;63.95;99916.06;7362444;19;20035;-59
2022/09/27 08:26:18;;;;;;;0.00;0.00;;;;;;;14.17;63.88;99907.94;7363496;19;20010;-58
2022/09/27 08:28:46;;;;;;;0.00;0.00;;;;;;;14.23;64.01;99907.63;7360729;19;20027;-59
2022/09/27 08:31:11;;;;;;;0.00;0.00;;;;;;;14.25;63.58;99911.06;7362018;19;20013;-58
2022/09/27 08:33:37;;;;;;;0.00;0.00;;;;;;;14.28;63.62;99906.47;7364404;19;20018;-59
2022/09/27 08:36:02;;;;;;;0.00;0.00;;;;;;;14.33;63.53;99905.41;7364062;19;20642;-59
2022/09/27 08:38:28;;;;;;;0.00;0.00;;;;;;;14.37;63.59;99904.31;7365636;19;20835;-58
2022/09/27 08:40:56;;;;;;;0.00;0.00;;;;;;;14.43;63.13;99899.59;7361933;19;20466;-59
2022/09/27 08:43:40;;;;;;;0.00;0.00;;;;;;;14.51;62.88;99894.00;7366374;19;20002;-60
2022/09/27 08:46:14;;;;;;;0.00;0.00;;;;;;;14.55;63.33;99900.78;7362686;19;20002;-59
2022/09/27 08:48:43;;;;;;;0.10;0.10;;;;;;;14.56;63.28;99899.84;7360582;19;20358;-59
2022/09/27 08:51:13;;;;;;;0.00;0.00;;;;;;;14.58;63.15;99894.50;7358304;19;20039;-59
2022/09/27 08:53:52;;;;;;;0.10;0.10;;;;;;;14.66;63.07;99900.22;7360623;19;20014;-58
2022/09/27 08:56:21;;;;;;;0.10;0.10;;;;;;;14.74;62.84;99903.28;7362569;19;20016;-58
2022/09/27 08:58:59;;;;;;;0.00;0.00;;;;;;;14.82;62.49;99906.38;7362200;19;20042;-59
2022/09/27 09:01:25;;;;;;;0.03;0.03;;;;;;;14.84;62.56;99906.28;7362739;19;20017;-59
2022/09/27 09:03:58;;;;;;;0.00;0.00;;;;;;;14.79;62.62;99886.34;7363919;19;20335;-58
2022/09/27 09:06:31;;;;;;;0.00;0.00;;;;;;;14.93;62.27;99887.41;7364485;19;20752;-59
2022/09/27 09:09:15;;;;;;;0.00;0.00;;;;;;;14.97;61.89;99899.44;7365123;19;20014;-58
2022/09/27 09:14:52;;;;;;;0.00;0.00;;;;;;;15.06;62.03;99909.47;7362343;19;20127;-59
2022/09/27 09:17:52;;;;;;;0.00;0.00;;;;;;;15.07;62.03;99905.91;7362565;19;20517;-59
2022/09/27 09:20:41;;;;;;;0.05;0.05;;;;;;;15.13;61.70;99910.00;7259790;19;2005897;-59
2022/09/27 09:23:16;;;;;;;0.00;0.00;;;;;;;15.13;61.79;99910.84;7361197;19;20006;-59
2022/09/27 09:25:51;;;;;;;0.10;0.10;;;;;;;15.14;61.67;99907.25;7361731;19;20514;-59
2022/09/27 09:28:37;;;;;;;0.00;0.00;;;;;;;15.22;61.62;99901.59;7362459;19;20118;-57
2022/09/27 09:31:44;;;;;;;0.10;0.10;;;;;;;15.27;61.84;99900.41;7362903;19;20418;-59
2022/09/27 09:34:19;;;;;;;0.05;0.05;;;;;;;15.20;61.72;99885.03;7260684;19;2004373;-59
2022/09/27 09:37:03;;;;;;;0.00;0.00;;;;;;;15.32;61.56;99898.38;7362255;19;20002;-59
2022/09/27 09:39:34;;;;;;;0.00;0.00;;;;;;;15.35;61.48;99899.97;7358613;19;20145;-58
2022/09/27 09:42:22;;;;;;;0.00;0.00;;;;;;;15.38;61.53;99897.19;7360523;19;20027;-56
2022/09/27 09:45:44;;;;;;;0.00;0.00;;;;;;;15.39;61.37;99891.00;7360667;19;20041;-59
2022/09/27 09:48:29;;;;;;;0.00;0.00;;;;;;;15.39;61.48;99890.16;7153705;19;2005827;-58
2022/09/27 09:50:58;;;;;;;0.00;0.00;;;;;;;15.37;61.48;99876.25;7361990;19;20033;-58
2022/09/27 09:53:42;;;;;;;0.00;0.00;;;;;;;15.39;61.28;99871.72;7364435;19;20014;-59
2022/09/27 09:56:20;;;;;;;0.10;0.10;;;;;;;15.40;61.24;99881.31;7362940;19;20487;-59
2022/09/27 09:59:40;;;;;;;0.08;0.08;;;;;;;15.42;61.27;99879.47;7355921;19;20011;-59
2022/09/27 10:02:34;;;;;;;0.03;0.03;;;;;;;15.43;60.89;99873.25;7148484;19;2005305;-59
2022/09/27 10:05:00;;;;;;;0.00;0.00;;;;;;;15.42;60.75;99874.19;7252434;19;2004323;-59
2022/09/27 10:07:27;;;;;;;0.00;0.00;;;;;;;15.40;60.41;99876.06;7363128;19;20021;-58
2022/09/27 10:09:56;;;;;;;0.10;0.10;;;;;;;15.28;60.84;99852.13;7358320;19;20029;-59
2022/09/27 10:12:22;;;;;;;0.00;0.00;;;;;;;15.37;60.88;99882.34;7360002;19;20007;-59
2022/09/27 10:14:49;;;;;;;0.00;0.00;;;;;;;15.40;61.03;99887.41;7361331;19;20037;-59
2022/09/27 10:17:26;;;;;;;0.00;0.00;;;;;;;15.41;61.08;99883.00;7360263;19;20702;-59
2022/09/27 10:19:53;;;;;;;0.00;0.00;;;;;;;15.37;61.61;99898.13;7360905;19;20676;-57
2022/09/27 10:22:27;;;;;;;0.00;0.00;;;;;;;15.36;61.56;99890.31;7353650;19;20482;-59
2022/09/27 10:25:02;;;;;;;0.00;0.00;;;;;;;15.40;62.19;99897.09;7352927;19;20018;-59
2022/09/27 10:27:39;;;;;;;0.00;0.00;;;;;;;15.38;61.83;99889.31;7353725;19;20010;-60
2022/09/27 10:30:05;;;;;;;0.00;0.00;;;;;;;15.24;62.74;99871.63;7358457;19;20015;-59
2022/09/27 10:32:35;;;;;;;0.00;0.00;;;;;;;15.35;62.63;99886.81;7361577;19;20029;-59
2022/09/27 10:35:21;;;;;;;0.00;0.00;;;;;;;15.38;62.01;99884.03;7363193;19;20679;-59
2022/09/27 10:37:47;;;;;;;0.00;0.00;;;;;;;15.36;62.94;99882.41;7362916;19;20014;-59
2022/09/27 10:40:32;;;;;;;0.10;0.10;;;;;;;15.43;62.16;99873.25;7362753;19;21026;-59
2022/09/27 10:42:58;;;;;;;0.00;0.00;;;;;;;15.41;63.12;99877.75;7262077;19;2004476;-60
2022/09/27 10:45:32;;;;;;;0.00;0.00;;;;;;;15.44;63.01;99861.78;7363837;19;20025;-59
2022/09/27 10:47:59;;;;;;;0.00;0.00;;;;;;;15.37;63.02;99855.19;7363630;19;20030;-58
2022/09/27 10:50:30;;;;;;;0.00;0.00;;;;;;;15.51;63.02;99847.34;7356642;19;20006;-58
2022/09/27 10:53:18;;;;;;;0.00;0.00;;;;;;;15.55;62.80;99847.09;7362048;19;20709;-59
2022/09/27 10:55:47;;;;;;;0.00;0.00;;;;;;;15.57;63.35;99844.41;7363865;19;20015;-60
2022/09/27 10:58:20;;;;;;;0.00;0.00;;;;;;;15.65;63.09;99850.06;7362217;19;20014;-59
2022/09/27 11:00:54;;;;;;;0.10;0.10;;;;;;;15.70;63.15;99848.03;7364928;19;20010;-59
2022/09/27 11:03:19;;;;;;;0.00;0.00;;;;;;;15.71;63.25;99844.50;7364683;19;20006;-58
2022/09/27 11:05:45;;;;;;;0.00;0.00;;;;;;;15.68;63.54;99844.66;7363623;19;20932;-59
2022/09/27 11:08:27;;;;;;;0.00;0.00;;;;;;;15.79;62.59;99831.72;7363279;19;19999;-59
2022/09/27 11:11:20;;;;;;;0.00;0.00;;;;;;;15.84;62.78;99831.44;7363525;19;20002;-58
2022/09/27 11:14:16;;;;;;;0.00;0.00;;;;;;;15.86;62.64;99815.56;7256520;19;2004553;-59
2022/09/27 11:17:09;;;;;;;0.00;0.00;;;;;;;15.83;62.65;99804.28;7255023;19;2004322;-58
2022/09/27 11:19:49;;;;;;;0.00;0.00;;;;;;;15.87;62.88;99812.00;7361017;19;20027;-59
2022/09/27 11:22:48;;;;;;;0.00;0.00;;;;;;;15.88;62.65;99811.06;7363165;19;19999;-60
2022/09/27 11:25:52;;;;;;;0.00;0.00;;;;;;;15.92;62.24;99804.69;7261214;19;2004378;-59
2022/09/27 11:28:40;;;;;;;0.00;0.00;;;;;;;15.94;62.46;99806.28;7259795;19;2004320;-59
2022/09/27 11:31:27;;;;;;;0.10;0.10;;;;;;;15.97;62.98;99807.91;7357579;19;20639;-58
2022/09/27 11:34:13;;;;;;;0.00;0.00;;;;;;;16.02;62.97;99809.31;7350907;19;20530;-59
2022/09/27 11:37:04;;;;;;;0.00;0.00;;;;;;;16.09;62.80;99804.53;7354443;19;20697;-60
2022/09/27 11:40:14;;;;;;;0.00;0.00;;;;;;;16.13;62.60;99803.41;7252998;19;2004426;-59
2022/09/27 11:42:58;;;;;;;0.00;0.00;;;;;;;16.13;62.42;99803.41;7246614;19;2004006;-59
2022/09/27 11:45:51;;;;;;;0.00;0.00;;;;;;;16.12;62.42;99796.44;7351868;19;21173;-59
2022/09/27 11:49:00;;;;;;;0.00;0.00;;;;;;;16.13;62.15;99813.94;7255353;19;2004616;-59
2022/09/27 11:51:30;;;;;;;0.00;0.00;;;;;;;16.08;63.09;99801.03;7252137;19;2004347;-57
2022/09/27 11:54:12;;;;;;;0.00;0.00;;;;;;;16.06;62.92;99802.06;7354819;19;20011;-58
2022/09/27 11:57:01;;;;;;;0.00;0.00;;;;;;;16.03;62.29;99802.25;7360794;19;20030;-57
2022/09/27 11:59:41;;;;;;;0.10;0.10;;;;;;;16.02;62.31;99796.16;7363603;19;20006;-58